Nearby METAR Reports

 

KLOM - Philly Wings F, Pennsylvania, USA
Distance from station: SW 6mi, 10km
Updated: Thu, 24-Jul-2014 9:15pm EDT
Clear
Clear
 Wind from NNW
Wind: NNW 3 mph , 6 km/h
Temperature: 73°F , 23°C
Dew Point: 55°F , 13°C
Humidity: 53%
Barometer: 29.90 inHg , 1012.5 hPa
Clouds: Clear
Visibility: 10 miles , 16 km
2014/07/25 01:15 KLOM 250115Z AUTO 34003KT 10SM CLR 23/13 A2990 RMK AO1
KDYL - Doylestown, Pennsylvania, USA
Distance from station: NNE 10mi, 17km
Updated: Thu, 24-Jul-2014 8:54pm EDT
Clear
Clear
 Wind from NNW
Wind: NNW 6 mph , 9 km/h
Temperature: 70°F , 21°C
Dew Point: 55°F , 13°C
Humidity: 60%
Barometer: 29.91 inHg , 1012.9 hPa
Clouds: Clear
Visibility: 10 miles , 16 km
2014/07/25 00:54 KDYL 250054Z AUTO 34005KT 10SM CLR 21/13 A2991 RMK AO2 SLP123 T02110133
KPNE - Philadelphia/Ne, Pennsylvania, USA
Distance from station: SE 11mi, 18km
Updated: Thu, 24-Jul-2014 8:54pm EDT
Clear
Clear
 Wind from N
Wind: N 8 mph , 13 km/h
Temperature: 75°F , 24°C
Dew Point: 54°F , 12°C
Humidity: 47%
Barometer: 29.91 inHg , 1012.9 hPa
Clouds: Clear
Visibility: 10 miles , 16 km
2014/07/25 00:54 KPNE 250054Z 36007KT 10SM CLR 24/12 A2991 RMK AO2 SLP125 T02390117
 
KPTW - Pottstown, Pennsylvania, USA
Distance from station: W 20mi, 32km
Updated: Thu, 24-Jul-2014 8:54pm EDT
Clear
Clear
 Wind from N
Wind: N 7 mph , 11 km/h
Temperature: 72°F , 22°C
Dew Point: 54°F , 12°C
Humidity: 53%
Barometer: 29.93 inHg , 1013.5 hPa
Clouds: Clear
Visibility: 10 miles , 16 km
2014/07/25 00:54 KPTW 250054Z AUTO 35006KT 10SM CLR 22/12 A2993 RMK AO2 SLP130 T02170122
KTTN - Trenton, New Jersey, USA
Distance from station: ENE 20mi, 32km
Updated: Thu, 24-Jul-2014 8:53pm EDT
Few Clouds
Few Clouds
 Wind from NNW
Wind: NNW 6 mph , 9 km/h
Temperature: 72°F , 22°C
Dew Point: 55°F , 13°C
Humidity: 57%
Barometer: 29.89 inHg , 1012.2 hPa
Clouds: Few Clouds
Visibility: 10 miles , 16 km
Cloud details: Few Clouds 6500 ft
2014/07/25 00:53 KTTN 250053Z 34005KT 10SM FEW065 22/13 A2989 RMK AO2 SLP115 T02220128
KUKT - Quakertown Arp, Pennsylvania, USA
Distance from station: NNW 20mi, 32km
Updated: Thu, 24-Jul-2014 9:15pm EDT
Clear
Clear
 Wind from N
Wind: N 5 mph , 7 km/h
Temperature: 70°F , 21°C
Dew Point: 54°F , 12°C
Humidity: 57%
Barometer: 29.94 inHg , 1013.9 hPa
Clouds: Clear
Visibility: 10 miles , 16 km
2014/07/25 01:15 KUKT 250115Z AUTO 35004KT 10SM CLR 21/12 A2994 RMK AO1
 
KPHL - Philadelphia, Pennsylvania, USA
Distance from station: S 22mi, 36km
Updated: Thu, 24-Jul-2014 8:54pm EDT
Mostly cloudy
Mostly cloudy
 Wind from NNW
Wind: NNW 10 mph , 17 km/h
Temperature: 77°F , 25°C
Dew Point: 54°F , 12°C
Humidity: 44%
Barometer: 29.89 inHg , 1012.2 hPa
Clouds: Mostly cloudy
Visibility: 10 miles , 16 km
Cloud details: Few Clouds 6000 ft
Mostly cloudy 25000 ft
2014/07/25 00:54 KPHL 250054Z 34009KT 10SM FEW060 BKN250 25/12 A2989 RMK AO2 SLP122 T02500117 $
KVAY - Mount Holly, New Jersey, USA
Distance from station: SE 25mi, 41km
Updated: Thu, 24-Jul-2014 8:54pm EDT
Clear
Clear
 Wind from N
Wind: N 5 mph , 7 km/h
Temperature: 73°F , 23°C
Dew Point: 55°F , 13°C
Humidity: 53%
Barometer: 29.88 inHg , 1011.9 hPa
Clouds: Clear
Visibility: 10 miles , 16 km
2014/07/25 00:54 KVAY 250054Z AUTO 36004KT 10SM CLR 23/13 A2988 RMK AO2 SLP119 T02280133
KXLL - Allentown Queen, Pennsylvania, USA
Distance from station: NNW 31mi, 49km
Updated: Thu, 24-Jul-2014 9:15pm EDT
Clear
Clear
 Wind from NNW
Wind: NNW 6 mph , 9 km/h
Temperature: 70°F , 21°C
Dew Point: 52°F , 11°C
Humidity: 53%
Barometer: 29.94 inHg , 1013.9 hPa
Clouds: Clear
Visibility: 10 miles , 16 km
2014/07/25 01:15 KXLL 250115Z AUTO 33005KT 10SM CLR 21/11 A2994 RMK AO2
 
KWRI - Wrightst/Mcguire, New Jersey, USA
Distance from station: ESE 34mi, 54km
Updated: Thu, 24-Jul-2014 8:58pm EDT
Mostly cloudy
Mostly cloudy
 Wind from NNW
Wind: NNW 7 mph , 11 km/h
Temperature: 73°F , 23°C
Dew Point: 57°F , 14°C
Humidity: 57%
Barometer: 29.87 inHg , 1011.5 hPa
Clouds: Mostly cloudy
Visibility: 10 miles , 16 km
Cloud details: Mostly cloudy 6000 ft
Mostly cloudy 19000 ft
2014/07/25 00:58 KWRI 250058Z AUTO 33006KT 10SM BKN060 BKN190 23/14 A2987 RMK AO2 SLP117 T02250139
KABE - Allentown, Pennsylvania, USA
Distance from station: NNW 35mi, 56km
Updated: Thu, 24-Jul-2014 8:51pm EDT
Clear
Clear
 Wind from NNW
Wind: NNW 6 mph , 9 km/h
Temperature: 70°F , 21°C
Dew Point: 54°F , 12°C
Humidity: 57%
Barometer: 29.92 inHg , 1013.2 hPa
Clouds: Clear
Visibility: 10 miles , 16 km
2014/07/25 00:51 KABE 250051Z 34005KT 10SM CLR 21/12 A2992 RMK AO2 SLP129 T02110117
KMQS - Coatesville, Pennsylvania, USA
Distance from station: WSW 39mi, 63km
Updated: Thu, 24-Jul-2014 9:15pm EDT
Clear
Clear
 Wind from N
Wind: N 6 mph , 9 km/h
Temperature: 68°F , 20°C
Dew Point: 55°F , 13°C
Humidity: 64%
Barometer: 29.94 inHg , 1013.9 hPa
Clouds: Clear
Visibility: 10 miles , 16 km
2014/07/25 01:15 KMQS 250115Z AUTO 35005KT 10SM CLR 20/13 A2994 RMK AO2
 
KSMQ - Somerville, New Jersey, USA
Distance from station: NE 40mi, 64km
Updated: Thu, 24-Jul-2014 8:53pm EDT
Clear
Clear
 Wind from NNW
Wind: NNW 3 mph , 6 km/h
Temperature: 72°F , 22°C
Dew Point: 55°F , 13°C
Humidity: 57%
Barometer: 29.88 inHg , 1011.9 hPa
Clouds: Clear
Visibility: 10 miles , 16 km
2014/07/25 00:53 KSMQ 250053Z AUTO 34003KT 10SM CLR 22/13 A2988 RMK AO2 SLP118 T02220128
KILG - Wilmington, Delaware, USA
Distance from station: SSW 42mi, 68km
Updated: Thu, 24-Jul-2014 8:51pm EDT
Clear
Clear
 Wind from NNW
Wind: NNW 8 mph , 13 km/h
Temperature: 73°F , 23°C
Dew Point: 55°F , 13°C
Humidity: 53%
Barometer: 29.90 inHg , 1012.5 hPa
Clouds: Clear
Visibility: 10 miles , 16 km
2014/07/25 00:51 KILG 250051Z 34007KT 10SM CLR 23/13 A2990 RMK AO2 SLP124 T02330133
KRDG - Reading, Pennsylvania, USA
Distance from station: WNW 43mi, 70km
Updated: Thu, 24-Jul-2014 8:54pm EDT
Clear
Clear
 Wind from NNW
Wind: NNW 7 mph , 11 km/h
Temperature: 72°F , 22°C
Dew Point: 55°F , 13°C
Humidity: 57%
Barometer: 29.92 inHg , 1013.2 hPa
Clouds: Clear
Visibility: 10 miles , 16 km
2014/07/25 00:54 KRDG 250054Z AUTO 34006KT 10SM CLR 22/13 A2992 RMK AO2 SLP135 T02170128
 
KNEL - Lakehurst Nas, New Jersey, USA
Distance from station: ESE 46mi, 74km
Updated: Thu, 17-Jul-2014 3:00pm EDT
NOT Current
Mostly cloudy
Mostly cloudy
 Wind from WNW
Wind: WNW 6 mph , 9 km/h
Temperature: 81°F , 27°C
Heat Index: 81°F , 27°C
Dew Point: 55°F , 13°C
Humidity: 42%
Barometer: 29.99 inHg , 1015.6 hPa
Clouds: Mostly cloudy
Cloud details: Partly cloudy 5500 ft
Partly cloudy 8000 ft
Mostly cloudy 10000 ft
2014/07/17 19:00 KNEL 171900Z AUTO 30005KT SCT055 SCT080 BKN100 27/13 A2999 RMK AO2 SLP153 T02720128 $
KMJX - Toms River, New Jersey, USA
Distance from station: ESE 50mi, 80km
Updated: Thu, 24-Jul-2014 9:15pm EDT
Overcast
Overcast
 Wind from calm
Wind: Calm
Temperature: 72°F , 22°C
Dew Point: 64°F , 18°C
Humidity: 78%
Barometer: 29.90 inHg , 1012.5 hPa
Clouds: Overcast
Visibility: 10 miles , 16 km
Cloud details: Overcast 6000 ft
2014/07/25 01:15 KMJX 250115Z AUTO 00000KT 10SM OVC060 22/18 A2990 RMK AO1